Terminal Aerodrome Forecast
Issued by NWS Wakefield, VA

Home | Current Version | Previous Version | Text Only | Print | Product List | Glossary On
Versions: 1 2 3 4 5 6 7 8 9 10 11 12 13 14 15
117
FTUS41 KAKQ 131737
TAFRIC
TAF
KRIC 131737Z 1318/1418 32016G24KT P6SM SCT060 OVC080
     FM132300 32013G20KT P6SM BKN060
     FM140100 31008KT P6SM SCT050
     FM141400 35008KT P6SM SCT150=

USA.gov is the U.S. government's official web portal to all federal, state and local government web resources and services.